Veersedijk — PBCX — position and weather

sailwx.info

Track history (hours):
 
Tides and Currents Weather Stations Pressure Air Temp Water Temp Dewpoint Dewpoint Depression Visibility Wind Speed Wind Dir Waves Ship Positions

Veersedijk

Last reported at 2014-Nov-23 11:04 UTC. Time now 2014-Nov-23 12:19 UTC.
Position N 41°18' E 002°09'.

Length 132 m; draft 5.2 m.

Type: Cargo ship. MMSI: 244268000.

Date/timePositionNaut miles runAvg speedWind from/ knotsBaromVisibWave heightAir tempDewpointWater temp
2014-Nov-23 11:04N 41°18' E 002°09'0 0.0
2014-Nov-23 09:22N 41°18' E 002°09'0 0.0
2014-Nov-23 08:28N 41°18' E 002°09'0 0.0
2014-Nov-23 03:16N 41°18' E 002°09'0 0.0
2014-Nov-23 02:27N 41°18' E 002°09'0 0.0
2014-Nov-23 00:33N 41°18' E 002°09'0 0.0
2014-Nov-22 16:21N 41°18' E 002°09'  
2014-Nov-16 17:31N 41°18' E 002°09'0 0.0
2014-Nov-16 15:31N 41°18' E 002°09'3 3.0
2014-Nov-16 14:33N 41°15' E 002°09'1311.4
2014-Nov-16 13:22N 41°07' E 001°55'911.1
2014-Nov-16 12:33N 41°01' E 001°46'1611.2
2014-Nov-16 11:10N 40°52' E 001°29'10811.0
2014-Nov-16 01:19N 39°33' W 000°08'911.1
2014-Nov-16 00:33N 39°27' W 000°15'3 3.0
2014-Nov-15 23:33N 39°26' W 000°19'0 0.0
2014-Nov-15 22:30N 39°26' W 000°19'0 0.0
2014-Nov-15 21:30N 39°26' W 000°19'0 0.0
2014-Nov-15 20:33N 39°26' W 000°19'0 0.0
2014-Nov-15 19:33N 39°26' W 000°19'0 0.0
2014-Nov-15 18:33N 39°26' W 000°19'0 0.0
2014-Nov-15 17:33N 39°26' W 000°19'0 0.0
2014-Nov-15 16:33N 39°26' W 000°19'1 0.9
2014-Nov-15 15:34N 39°27' W 000°19'0 0.2
2014-Nov-15 14:33N 39°27' W 000°19'0 0.0
2014-Nov-15 13:33N 39°27' W 000°19'0 0.0
2014-Nov-15 12:30N 39°27' W 000°19'0 0.0
2014-Nov-15 11:33N 39°27' W 000°19'0 0.0
2014-Nov-15 10:27N 39°27' W 000°19'86 6.7
2014-Nov-14 21:31N 38°01' W 000°07'1312.3
2014-Nov-14 20:25N 37°50' W 000°17'1112.5
2014-Nov-14 19:33N 37°41' W 000°24'1212.5
2014-Nov-14 18:33N 37°31' W 000°34'1212.2
2014-Nov-14 17:33N 37°23' W 000°45'23111.6
2014-Nov-13 21:33N 36°05' W 005°17'7 3.7
2014-Nov-13 19:33N 36°08' W 005°25'0 0.0
2014-Nov-13 18:33N 36°08' W 005°25'0 0.0
2014-Nov-13 17:30N 36°08' W 005°25'0 0.0
2014-Nov-13 16:33N 36°08' W 005°25'0 0.0
2014-Nov-13 15:29N 36°08' W 005°25'0 0.0
2014-Nov-13 14:32N 36°08' W 005°25'0 0.0
2014-Nov-13 13:23N 36°08' W 005°25'0 0.0
2014-Nov-13 11:23N 36°08' W 005°25'  
Track history (hours):
 
Tides and Currents Weather Stations Pressure Air Temp Water Temp Dewpoint Dewpoint Depression Visibility Wind Speed Wind Dir Waves Ship Positions

Veersedijk

Last reported at 2014-Nov-23 11:04 UTC. Time now 2014-Nov-23 12:19 UTC.
Position N 41°18' E 002°09'.

Length 132 m; draft 5.2 m.

Type: Cargo ship. MMSI: 244268000.

Date/timePositionNaut miles runAvg speedWind from/ knotsBaromVisibWave heightAir tempDewpointWater temp
2014-Nov-23 11:04N 41°18' E 002°09'0 0.0
2014-Nov-23 09:22N 41°18' E 002°09'0 0.0
2014-Nov-23 08:28N 41°18' E 002°09'0 0.0
2014-Nov-23 03:16N 41°18' E 002°09'0 0.0
2014-Nov-23 02:27N 41°18' E 002°09'0 0.0
2014-Nov-23 00:33N 41°18' E 002°09'0 0.0
2014-Nov-22 16:21N 41°18' E 002°09'  
2014-Nov-16 17:31N 41°18' E 002°09'0 0.0
2014-Nov-16 15:31N 41°18' E 002°09'3 3.0
2014-Nov-16 14:33N 41°15' E 002°09'1311.4
2014-Nov-16 13:22N 41°07' E 001°55'911.1
2014-Nov-16 12:33N 41°01' E 001°46'1611.2
2014-Nov-16 11:10N 40°52' E 001°29'10811.0
2014-Nov-16 01:19N 39°33' W 000°08'911.1
2014-Nov-16 00:33N 39°27' W 000°15'3 3.0
2014-Nov-15 23:33N 39°26' W 000°19'0 0.0
2014-Nov-15 22:30N 39°26' W 000°19'0 0.0
2014-Nov-15 21:30N 39°26' W 000°19'0 0.0
2014-Nov-15 20:33N 39°26' W 000°19'0 0.0
2014-Nov-15 19:33N 39°26' W 000°19'0 0.0
2014-Nov-15 18:33N 39°26' W 000°19'0 0.0
2014-Nov-15 17:33N 39°26' W 000°19'0 0.0
2014-Nov-15 16:33N 39°26' W 000°19'1 0.9
2014-Nov-15 15:34N 39°27' W 000°19'0 0.2
2014-Nov-15 14:33N 39°27' W 000°19'0 0.0
2014-Nov-15 13:33N 39°27' W 000°19'0 0.0
2014-Nov-15 12:30N 39°27' W 000°19'0 0.0
2014-Nov-15 11:33N 39°27' W 000°19'0 0.0
2014-Nov-15 10:27N 39°27' W 000°19'86 6.7
2014-Nov-14 21:31N 38°01' W 000°07'1312.3
2014-Nov-14 20:25N 37°50' W 000°17'1112.5
2014-Nov-14 19:33N 37°41' W 000°24'1212.5
2014-Nov-14 18:33N 37°31' W 000°34'1212.2
2014-Nov-14 17:33N 37°23' W 000°45'23111.6
2014-Nov-13 21:33N 36°05' W 005°17'7 3.7
2014-Nov-13 19:33N 36°08' W 005°25'0 0.0
2014-Nov-13 18:33N 36°08' W 005°25'0 0.0
2014-Nov-13 17:30N 36°08' W 005°25'0 0.0
2014-Nov-13 16:33N 36°08' W 005°25'0 0.0
2014-Nov-13 15:29N 36°08' W 005°25'0 0.0
2014-Nov-13 14:32N 36°08' W 005°25'0 0.0
2014-Nov-13 13:23N 36°08' W 005°25'0 0.0
2014-Nov-13 11:23N 36°08' W 005°25'  

Dump ship's entire track history